sensor_id;sensor_type;location;lat;lon;timestamp;temperature;humidity
68867;SHT30;56451;44.804;20.476;2024-01-30T00:02:39;6.26;64.71
68867;SHT30;56451;44.804;20.476;2024-01-30T00:05:10;6.22;64.84
68867;SHT30;56451;44.804;20.476;2024-01-30T00:07:36;6.19;65.04
68867;SHT30;56451;44.804;20.476;2024-01-30T00:10:22;6.07;65.22
68867;SHT30;56451;44.804;20.476;2024-01-30T00:13:08;6.06;65.35
68867;SHT30;56451;44.804;20.476;2024-01-30T00:15:54;6.07;65.32
68867;SHT30;56451;44.804;20.476;2024-01-30T00:18:20;6.05;65.36
68867;SHT30;56451;44.804;20.476;2024-01-30T00:21:06;6.06;65.44
68867;SHT30;56451;44.804;20.476;2024-01-30T00:23:52;5.94;65.67
68867;SHT30;56451;44.804;20.476;2024-01-30T00:26:38;5.98;65.84
68867;SHT30;56451;44.804;20.476;2024-01-30T00:29:24;5.91;65.99
68867;SHT30;56451;44.804;20.476;2024-01-30T00:32:10;5.88;66.25
68867;SHT30;56451;44.804;20.476;2024-01-30T00:34:36;5.92;66.16
68867;SHT30;56451;44.804;20.476;2024-01-30T00:37:02;5.89;66.28
68867;SHT30;56451;44.804;20.476;2024-01-30T00:39:28;5.82;66.42
68867;SHT30;56451;44.804;20.476;2024-01-30T00:42:14;5.86;66.32
68867;SHT30;56451;44.804;20.476;2024-01-30T00:44:40;5.91;66.28
68867;SHT30;56451;44.804;20.476;2024-01-30T00:47:06;5.89;66.24
68867;SHT30;56451;44.804;20.476;2024-01-30T00:49:33;5.98;65.98
68867;SHT30;56451;44.804;20.476;2024-01-30T00:52:19;5.96;65.92
68867;SHT30;56451;44.804;20.476;2024-01-30T00:54:45;5.95;65.92
68867;SHT30;56451;44.804;20.476;2024-01-30T00:57:11;5.94;65.95
68867;SHT30;56451;44.804;20.476;2024-01-30T00:59:37;5.94;65.93
68867;SHT30;56451;44.804;20.476;2024-01-30T01:02:03;5.99;65.86
68867;SHT30;56451;44.804;20.476;2024-01-30T01:04:29;5.98;65.73
68867;SHT30;56451;44.804;20.476;2024-01-30T01:06:56;5.96;65.84
68867;SHT30;56451;44.804;20.476;2024-01-30T01:09:22;5.96;65.82
68867;SHT30;56451;44.804;20.476;2024-01-30T01:11:48;6.02;65.70
68867;SHT30;56451;44.804;20.476;2024-01-30T01:14:14;6.03;65.73
68867;SHT30;56451;44.804;20.476;2024-01-30T01:16:50;6.07;65.56
68867;SHT30;56451;44.804;20.476;2024-01-30T01:19:36;6.06;65.62
68867;SHT30;56451;44.804;20.476;2024-01-30T01:22:22;6.06;65.64
68867;SHT30;56451;44.804;20.476;2024-01-30T01:25:02;6.07;65.57
68867;SHT30;56451;44.804;20.476;2024-01-30T01:27:49;6.12;65.48
68867;SHT30;56451;44.804;20.476;2024-01-30T01:30:35;6.13;65.44
68867;SHT30;56451;44.804;20.476;2024-01-30T01:33:21;6.16;65.26
68867;SHT30;56451;44.804;20.476;2024-01-30T01:35:47;6.12;65.39
68867;SHT30;56451;44.804;20.476;2024-01-30T01:38:33;6.19;65.31
68867;SHT30;56451;44.804;20.476;2024-01-30T01:40:59;6.12;65.24
68867;SHT30;56451;44.804;20.476;2024-01-30T01:43:25;6.16;65.27
68867;SHT30;56451;44.804;20.476;2024-01-30T01:45:51;6.15;65.08
68867;SHT30;56451;44.804;20.476;2024-01-30T01:48:17;6.22;65.00
68867;SHT30;56451;44.804;20.476;2024-01-30T01:51:02;6.22;64.93
68867;SHT30;56451;44.804;20.476;2024-01-30T01:53:29;6.15;65.06
68867;SHT30;56451;44.804;20.476;2024-01-30T01:55:56;6.19;65.14
68867;SHT30;56451;44.804;20.476;2024-01-30T01:58:23;6.22;64.95
68867;SHT30;56451;44.804;20.476;2024-01-30T02:01:04;6.22;65.14
68867;SHT30;56451;44.804;20.476;2024-01-30T02:03:50;6.25;64.97
68867;SHT30;56451;44.804;20.476;2024-01-30T02:06:17;6.20;65.05
68867;SHT30;56451;44.804;20.476;2024-01-30T02:09:03;6.26;64.95
68867;SHT30;56451;44.804;20.476;2024-01-30T02:11:31;6.26;65.00
68867;SHT30;56451;44.804;20.476;2024-01-30T02:14:17;6.15;65.26
68867;SHT30;56451;44.804;20.476;2024-01-30T02:16:43;6.10;65.41
68867;SHT30;56451;44.804;20.476;2024-01-30T02:19:10;6.06;65.42
68867;SHT30;56451;44.804;20.476;2024-01-30T02:21:36;6.10;65.44
68867;SHT30;56451;44.804;20.476;2024-01-30T02:24:02;6.10;65.39
68867;SHT30;56451;44.804;20.476;2024-01-30T02:26:29;6.07;65.31
68867;SHT30;56451;44.804;20.476;2024-01-30T02:28:55;6.09;65.23
68867;SHT30;56451;44.804;20.476;2024-01-30T02:31:22;6.02;65.46
68867;SHT30;56451;44.804;20.476;2024-01-30T02:33:50;5.96;65.55
68867;SHT30;56451;44.804;20.476;2024-01-30T02:36:36;6.03;65.57
68867;SHT30;56451;44.804;20.476;2024-01-30T02:39:03;5.99;65.61
68867;SHT30;56451;44.804;20.476;2024-01-30T02:41:49;5.95;65.68
68867;SHT30;56451;44.804;20.476;2024-01-30T02:44:35;5.92;65.77
68867;SHT30;56451;44.804;20.476;2024-01-30T02:47:21;5.94;65.60
68867;SHT30;56451;44.804;20.476;2024-01-30T02:50:07;5.91;65.60
68867;SHT30;56451;44.804;20.476;2024-01-30T02:52:53;5.91;65.64
68867;SHT30;56451;44.804;20.476;2024-01-30T02:55:19;5.89;65.51
68867;SHT30;56451;44.804;20.476;2024-01-30T02:57:46;5.85;65.53
68867;SHT30;56451;44.804;20.476;2024-01-30T03:00:12;5.84;65.42
68867;SHT30;56451;44.804;20.476;2024-01-30T03:02:38;5.85;65.40
68867;SHT30;56451;44.804;20.476;2024-01-30T03:05:06;5.89;65.17
68867;SHT30;56451;44.804;20.476;2024-01-30T03:07:33;5.86;64.98
68867;SHT30;56451;44.804;20.476;2024-01-30T03:09:59;5.81;65.07
68867;SHT30;56451;44.804;20.476;2024-01-30T03:12:25;5.85;64.86
68867;SHT30;56451;44.804;20.476;2024-01-30T03:14:52;5.82;64.69
68867;SHT30;56451;44.804;20.476;2024-01-30T03:17:18;5.77;64.79
68867;SHT30;56451;44.804;20.476;2024-01-30T03:19:44;5.69;64.99
68867;SHT30;56451;44.804;20.476;2024-01-30T03:22:10;5.72;64.94
68867;SHT30;56451;44.804;20.476;2024-01-30T03:24:36;5.67;65.05
68867;SHT30;56451;44.804;20.476;2024-01-30T03:27:02;5.59;65.11
68867;SHT30;56451;44.804;20.476;2024-01-30T03:29:29;5.54;65.22
68867;SHT30;56451;44.804;20.476;2024-01-30T03:32:15;5.43;65.66
68867;SHT30;56451;44.804;20.476;2024-01-30T03:35:01;5.44;65.58
68867;SHT30;56451;44.804;20.476;2024-01-30T03:37:27;5.31;65.84
68867;SHT30;56451;44.804;20.476;2024-01-30T03:39:53;5.24;65.98
68867;SHT30;56451;44.804;20.476;2024-01-30T03:42:39;5.20;66.29
68867;SHT30;56451;44.804;20.476;2024-01-30T03:45:25;5.16;66.23
68867;SHT30;56451;44.804;20.476;2024-01-30T03:47:54;5.12;66.38
68867;SHT30;56451;44.804;20.476;2024-01-30T03:50:40;5.08;66.47
68867;SHT30;56451;44.804;20.476;2024-01-30T03:53:06;5.05;66.51
68867;SHT30;56451;44.804;20.476;2024-01-30T03:55:32;5.03;66.54
68867;SHT30;56451;44.804;20.476;2024-01-30T03:58:21;5.01;66.54
68867;SHT30;56451;44.804;20.476;2024-01-30T04:01:07;5.03;66.38
68867;SHT30;56451;44.804;20.476;2024-01-30T04:03:54;5.08;66.32
68867;SHT30;56451;44.804;20.476;2024-01-30T04:06:20;5.09;66.34
68867;SHT30;56451;44.804;20.476;2024-01-30T04:08:46;5.12;66.22
68867;SHT30;56451;44.804;20.476;2024-01-30T04:11:32;5.08;66.08
68867;SHT30;56451;44.804;20.476;2024-01-30T04:14:00;5.10;66.15
68867;SHT30;56451;44.804;20.476;2024-01-30T04:16:46;5.05;66.12
68867;SHT30;56451;44.804;20.476;2024-01-30T04:19:16;5.03;66.29
68867;SHT30;56451;44.804;20.476;2024-01-30T04:21:42;4.99;66.19
68867;SHT30;56451;44.804;20.476;2024-01-30T04:24:09;4.97;66.28
68867;SHT30;56451;44.804;20.476;2024-01-30T04:26:36;4.95;66.27
68867;SHT30;56451;44.804;20.476;2024-01-30T04:29:03;4.88;66.56
68867;SHT30;56451;44.804;20.476;2024-01-30T04:31:50;4.83;66.84
68867;SHT30;56451;44.804;20.476;2024-01-30T04:34:17;4.85;66.92
68867;SHT30;56451;44.804;20.476;2024-01-30T04:36:44;4.79;66.97
68867;SHT30;56451;44.804;20.476;2024-01-30T04:39:13;4.79;67.22
68867;SHT30;56451;44.804;20.476;2024-01-30T04:41:40;4.83;67.35
68867;SHT30;56451;44.804;20.476;2024-01-30T04:44:06;4.82;67.51
68867;SHT30;56451;44.804;20.476;2024-01-30T04:46:32;4.82;67.58
68867;SHT30;56451;44.804;20.476;2024-01-30T04:49:00;4.88;67.55
68867;SHT30;56451;44.804;20.476;2024-01-30T04:51:26;4.89;67.48
68867;SHT30;56451;44.804;20.476;2024-01-30T04:53:53;4.92;67.47
68867;SHT30;56451;44.804;20.476;2024-01-30T04:56:19;4.92;67.33
68867;SHT30;56451;44.804;20.476;2024-01-30T04:59:05;4.79;67.90
68867;SHT30;56451;44.804;20.476;2024-01-30T05:01:31;4.76;68.00
68867;SHT30;56451;44.804;20.476;2024-01-30T05:04:17;4.79;67.93
68867;SHT30;56451;44.804;20.476;2024-01-30T05:06:46;4.83;67.93
68867;SHT30;56451;44.804;20.476;2024-01-30T05:09:32;4.83;67.84
68867;SHT30;56451;44.804;20.476;2024-01-30T05:11:59;4.90;67.70
68867;SHT30;56451;44.804;20.476;2024-01-30T05:14:45;4.86;67.74
68867;SHT30;56451;44.804;20.476;2024-01-30T05:17:31;4.85;67.86
68867;SHT30;56451;44.804;20.476;2024-01-30T05:19:57;4.83;67.94
68867;SHT30;56451;44.804;20.476;2024-01-30T05:22:43;4.89;67.74
68867;SHT30;56451;44.804;20.476;2024-01-30T05:25:12;4.95;67.53
68867;SHT30;56451;44.804;20.476;2024-01-30T05:27:39;4.95;67.31
68867;SHT30;56451;44.804;20.476;2024-01-30T05:30:06;5.00;67.35
68867;SHT30;56451;44.804;20.476;2024-01-30T05:32:33;5.03;67.10
68867;SHT30;56451;44.804;20.476;2024-01-30T05:34:59;4.99;67.04
68867;SHT30;56451;44.804;20.476;2024-01-30T05:37:25;4.99;67.12
68867;SHT30;56451;44.804;20.476;2024-01-30T05:40:00;4.99;67.02
68867;SHT30;56451;44.804;20.476;2024-01-30T05:42:27;4.93;66.92
68867;SHT30;56451;44.804;20.476;2024-01-30T05:44:58;4.89;67.20
68867;SHT30;56451;44.804;20.476;2024-01-30T05:47:25;4.88;67.14
68867;SHT30;56451;44.804;20.476;2024-01-30T05:49:51;4.89;67.10
68867;SHT30;56451;44.804;20.476;2024-01-30T05:52:17;4.95;66.89
68867;SHT30;56451;44.804;20.476;2024-01-30T05:55:03;4.95;66.53
68867;SHT30;56451;44.804;20.476;2024-01-30T05:57:30;4.93;66.52
68867;SHT30;56451;44.804;20.476;2024-01-30T05:59:56;4.96;66.45
68867;SHT30;56451;44.804;20.476;2024-01-30T06:02:42;4.97;66.11
68867;SHT30;56451;44.804;20.476;2024-01-30T06:05:28;4.96;65.96
68867;SHT30;56451;44.804;20.476;2024-01-30T06:07:54;5.00;65.80
68867;SHT30;56451;44.804;20.476;2024-01-30T06:10:41;4.96;65.65
68867;SHT30;56451;44.804;20.476;2024-01-30T06:13:11;4.96;65.47
68867;SHT30;56451;44.804;20.476;2024-01-30T06:15:37;4.99;65.23
68867;SHT30;56451;44.804;20.476;2024-01-30T06:18:24;5.01;65.04
68867;SHT30;56451;44.804;20.476;2024-01-30T06:20:52;4.96;64.70
68867;SHT30;56451;44.804;20.476;2024-01-30T06:23:18;5.01;64.49
68867;SHT30;56451;44.804;20.476;2024-01-30T06:26:06;5.05;64.13
68867;SHT30;56451;44.804;20.476;2024-01-30T06:28:52;4.97;63.95
68867;SHT30;56451;44.804;20.476;2024-01-30T06:31:41;4.92;64.03
68867;SHT30;56451;44.804;20.476;2024-01-30T06:34:08;4.92;64.06
68867;SHT30;56451;44.804;20.476;2024-01-30T06:36:34;4.96;63.84
68867;SHT30;56451;44.804;20.476;2024-01-30T06:39:02;4.99;63.48
68867;SHT30;56451;44.804;20.476;2024-01-30T06:41:48;5.01;63.24
68867;SHT30;56451;44.804;20.476;2024-01-30T06:44:14;5.08;62.98
68867;SHT30;56451;44.804;20.476;2024-01-30T06:46:40;5.08;62.77
68867;SHT30;56451;44.804;20.476;2024-01-30T06:49:06;5.16;62.40
68867;SHT30;56451;44.804;20.476;2024-01-30T06:51:32;5.16;62.49
68867;SHT30;56451;44.804;20.476;2024-01-30T06:54:02;5.17;62.22
68867;SHT30;56451;44.804;20.476;2024-01-30T06:56:29;5.23;61.90
68867;SHT30;56451;44.804;20.476;2024-01-30T06:58:55;5.23;61.79
68867;SHT30;56451;44.804;20.476;2024-01-30T07:01:27;5.26;61.72
68867;SHT30;56451;44.804;20.476;2024-01-30T07:04:13;5.20;61.69
68867;SHT30;56451;44.804;20.476;2024-01-30T07:06:59;5.27;61.26
68867;SHT30;56451;44.804;20.476;2024-01-30T07:09:25;5.36;61.05
68867;SHT30;56451;44.804;20.476;2024-01-30T07:12:09;5.37;60.57
68867;SHT30;56451;44.804;20.476;2024-01-30T07:14:55;5.40;60.62
68867;SHT30;56451;44.804;20.476;2024-01-30T07:17:22;5.41;60.94
68867;SHT30;56451;44.804;20.476;2024-01-30T07:20:07;5.44;60.88
68867;SHT30;56451;44.804;20.476;2024-01-30T07:22:53;5.50;60.68
68867;SHT30;56451;44.804;20.476;2024-01-30T07:25:38;5.54;60.40
68867;SHT30;56451;44.804;20.476;2024-01-30T07:28:05;5.46;60.45
68867;SHT30;56451;44.804;20.476;2024-01-30T07:30:51;5.50;60.48
68867;SHT30;56451;44.804;20.476;2024-01-30T07:33:21;5.59;60.20
68867;SHT30;56451;44.804;20.476;2024-01-30T07:35:47;5.67;60.04
68867;SHT30;56451;44.804;20.476;2024-01-30T07:38:33;5.71;59.46
68867;SHT30;56451;44.804;20.476;2024-01-30T07:41:00;5.74;59.54
68867;SHT30;56451;44.804;20.476;2024-01-30T07:43:26;5.75;59.29
68867;SHT30;56451;44.804;20.476;2024-01-30T07:45:52;5.77;59.52
68867;SHT30;56451;44.804;20.476;2024-01-30T07:48:38;5.86;59.22
68867;SHT30;56451;44.804;20.476;2024-01-30T07:51:25;5.92;58.90
68867;SHT30;56451;44.804;20.476;2024-01-30T07:53:54;5.92;58.72
68867;SHT30;56451;44.804;20.476;2024-01-30T07:56:22;5.95;58.39
68867;SHT30;56451;44.804;20.476;2024-01-30T07:58:48;5.95;58.50
68867;SHT30;56451;44.804;20.476;2024-01-30T08:01:37;5.94;58.46
68867;SHT30;56451;44.804;20.476;2024-01-30T08:04:23;5.94;58.31
68867;SHT30;56451;44.804;20.476;2024-01-30T08:07:09;5.98;58.43
68867;SHT30;56451;44.804;20.476;2024-01-30T08:09:36;6.01;57.95
68867;SHT30;56451;44.804;20.476;2024-01-30T08:12:25;6.06;57.85
68867;SHT30;56451;44.804;20.476;2024-01-30T08:15:11;6.12;57.86
68867;SHT30;56451;44.804;20.476;2024-01-30T08:17:42;6.12;57.69
68867;SHT30;56451;44.804;20.476;2024-01-30T08:20:08;6.15;57.71
68867;SHT30;56451;44.804;20.476;2024-01-30T08:22:38;6.15;57.18
68867;SHT30;56451;44.804;20.476;2024-01-30T08:25:24;6.22;57.05
68867;SHT30;56451;44.804;20.476;2024-01-30T08:27:51;6.22;57.40
68867;SHT30;56451;44.804;20.476;2024-01-30T08:30:19;6.16;57.58
68867;SHT30;56451;44.804;20.476;2024-01-30T08:33:05;6.16;57.83
68867;SHT30;56451;44.804;20.476;2024-01-30T08:35:52;6.16;58.05
68867;SHT30;56451;44.804;20.476;2024-01-30T08:38:38;6.15;58.27
68867;SHT30;56451;44.804;20.476;2024-01-30T08:41:05;6.23;58.17
68867;SHT30;56451;44.804;20.476;2024-01-30T08:43:30;6.29;58.14
68867;SHT30;56451;44.804;20.476;2024-01-30T08:46:01;6.38;57.97
68867;SHT30;56451;44.804;20.476;2024-01-30T08:48:27;6.44;57.65
68867;SHT30;56451;44.804;20.476;2024-01-30T08:51:13;6.48;57.45
68867;SHT30;56451;44.804;20.476;2024-01-30T08:53:59;6.57;57.27
68867;SHT30;56451;44.804;20.476;2024-01-30T08:56:25;6.60;57.09
68867;SHT30;56451;44.804;20.476;2024-01-30T08:58:51;6.65;56.99
68867;SHT30;56451;44.804;20.476;2024-01-30T09:01:38;6.71;56.37
68867;SHT30;56451;44.804;20.476;2024-01-30T09:04:25;6.74;56.54
68867;SHT30;56451;44.804;20.476;2024-01-30T09:06:51;6.77;56.37
68867;SHT30;56451;44.804;20.476;2024-01-30T09:09:38;6.89;56.01
68867;SHT30;56451;44.804;20.476;2024-01-30T09:12:09;6.98;55.38
68867;SHT30;56451;44.804;20.476;2024-01-30T09:14:55;7.05;55.01
68867;SHT30;56451;44.804;20.476;2024-01-30T09:17:41;7.12;53.84
68867;SHT30;56451;44.804;20.476;2024-01-30T09:20:31;7.12;52.34
68867;SHT30;56451;44.804;20.476;2024-01-30T09:23:17;7.11;51.23
68867;SHT30;56451;44.804;20.476;2024-01-30T09:25:45;7.18;50.56
68867;SHT30;56451;44.804;20.476;2024-01-30T09:28:12;7.12;50.02
68867;SHT30;56451;44.804;20.476;2024-01-30T09:30:38;7.09;50.34
68867;SHT30;56451;44.804;20.476;2024-01-30T09:33:06;7.13;49.90
68867;SHT30;56451;44.804;20.476;2024-01-30T09:35:32;7.22;49.69
68867;SHT30;56451;44.804;20.476;2024-01-30T09:38:19;7.26;50.06
68867;SHT30;56451;44.804;20.476;2024-01-30T09:40:49;7.30;49.84
68867;SHT30;56451;44.804;20.476;2024-01-30T09:43:38;7.36;49.23
68867;SHT30;56451;44.804;20.476;2024-01-30T09:46:26;7.49;48.71
68867;SHT30;56451;44.804;20.476;2024-01-30T09:49:13;7.54;48.33
68867;SHT30;56451;44.804;20.476;2024-01-30T09:52:00;7.52;48.41
68867;SHT30;56451;44.804;20.476;2024-01-30T09:54:48;7.59;48.66
68867;SHT30;56451;44.804;20.476;2024-01-30T09:57:29;7.59;48.46
68867;SHT30;56451;44.804;20.476;2024-01-30T10:00:16;7.64;48.37
68867;SHT30;56451;44.804;20.476;2024-01-30T10:03:02;7.66;48.38
68867;SHT30;56451;44.804;20.476;2024-01-30T10:05:51;7.73;48.49
68867;SHT30;56451;44.804;20.476;2024-01-30T10:08:20;7.81;48.35
68867;SHT30;56451;44.804;20.476;2024-01-30T10:11:06;7.80;48.37
68867;SHT30;56451;44.804;20.476;2024-01-30T10:13:33;7.83;48.47
68867;SHT30;56451;44.804;20.476;2024-01-30T10:15:59;7.88;48.16
68867;SHT30;56451;44.804;20.476;2024-01-30T10:18:27;7.91;48.23
68867;SHT30;56451;44.804;20.476;2024-01-30T10:20:54;7.88;48.29
68867;SHT30;56451;44.804;20.476;2024-01-30T10:23:21;7.94;48.03
68867;SHT30;56451;44.804;20.476;2024-01-30T10:26:08;7.97;47.73
68867;SHT30;56451;44.804;20.476;2024-01-30T10:28:54;7.95;47.54
68867;SHT30;56451;44.804;20.476;2024-01-30T10:31:40;7.95;47.79
68867;SHT30;56451;44.804;20.476;2024-01-30T10:34:27;8.01;47.31
68867;SHT30;56451;44.804;20.476;2024-01-30T10:37:13;8.09;46.73
68867;SHT30;56451;44.804;20.476;2024-01-30T10:40:03;8.13;46.54
68867;SHT30;56451;44.804;20.476;2024-01-30T10:42:53;8.21;46.17
68867;SHT30;56451;44.804;20.476;2024-01-30T10:45:22;8.22;45.36
68867;SHT30;56451;44.804;20.476;2024-01-30T10:48:09;8.26;44.89
68867;SHT30;56451;44.804;20.476;2024-01-30T10:50:38;8.28;45.02
68867;SHT30;56451;44.804;20.476;2024-01-30T10:53:06;8.28;45.09
68867;SHT30;56451;44.804;20.476;2024-01-30T10:55:54;8.33;44.50
68867;SHT30;56451;44.804;20.476;2024-01-30T10:58:22;8.43;44.38
68867;SHT30;56451;44.804;20.476;2024-01-30T11:00:49;8.33;44.46
68867;SHT30;56451;44.804;20.476;2024-01-30T11:03:36;8.50;44.23
68867;SHT30;56451;44.804;20.476;2024-01-30T11:06:03;8.54;43.54
68867;SHT30;56451;44.804;20.476;2024-01-30T11:08:32;8.53;43.73
68867;SHT30;56451;44.804;20.476;2024-01-30T11:11:18;8.54;43.56
68867;SHT30;56451;44.804;20.476;2024-01-30T11:14:04;8.56;43.69
68867;SHT30;56451;44.804;20.476;2024-01-30T11:16:33;8.60;43.45
68867;SHT30;56451;44.804;20.476;2024-01-30T11:19:23;8.59;43.47
68867;SHT30;56451;44.804;20.476;2024-01-30T11:22:10;8.59;43.43
68867;SHT30;56451;44.804;20.476;2024-01-30T11:24:56;8.61;43.38
68867;SHT30;56451;44.804;20.476;2024-01-30T11:28:00;8.69;43.53
68867;SHT30;56451;44.804;20.476;2024-01-30T11:30:46;8.74;43.39
68867;SHT30;56451;44.804;20.476;2024-01-30T11:33:32;8.83;42.82
68867;SHT30;56451;44.804;20.476;2024-01-30T11:36:22;8.84;42.66
68867;SHT30;56451;44.804;20.476;2024-01-30T11:38:51;8.87;42.69
68867;SHT30;56451;44.804;20.476;2024-01-30T11:41:37;8.94;42.40
68867;SHT30;56451;44.804;20.476;2024-01-30T11:44:24;8.85;42.27
68867;SHT30;56451;44.804;20.476;2024-01-30T11:47:10;8.91;42.76
68867;SHT30;56451;44.804;20.476;2024-01-30T11:49:57;8.88;43.30
68867;SHT30;56451;44.804;20.476;2024-01-30T11:52:43;8.97;43.00
68867;SHT30;56451;44.804;20.476;2024-01-30T11:55:30;9.03;42.94
68867;SHT30;56451;44.804;20.476;2024-01-30T11:58:16;9.07;42.47
68867;SHT30;56451;44.804;20.476;2024-01-30T12:01:02;9.08;41.91
68867;SHT30;56451;44.804;20.476;2024-01-30T12:03:28;9.07;41.64
68867;SHT30;56451;44.804;20.476;2024-01-30T12:06:16;9.08;41.57
68867;SHT30;56451;44.804;20.476;2024-01-30T12:08:42;9.15;41.87
68867;SHT30;56451;44.804;20.476;2024-01-30T12:11:08;9.22;41.71
68867;SHT30;56451;44.804;20.476;2024-01-30T12:13:34;9.28;41.64
68867;SHT30;56451;44.804;20.476;2024-01-30T12:16:01;9.31;41.39
68867;SHT30;56451;44.804;20.476;2024-01-30T12:18:48;9.32;41.27
68867;SHT30;56451;44.804;20.476;2024-01-30T12:21:35;9.40;40.01
68867;SHT30;56451;44.804;20.476;2024-01-30T12:24:22;9.43;40.28
68867;SHT30;56451;44.804;20.476;2024-01-30T12:27:08;9.52;40.29
68867;SHT30;56451;44.804;20.476;2024-01-30T12:29:57;9.48;40.80
68867;SHT30;56451;44.804;20.476;2024-01-30T12:32:24;9.45;40.78
68867;SHT30;56451;44.804;20.476;2024-01-30T12:34:54;9.52;40.60
68867;SHT30;56451;44.804;20.476;2024-01-30T12:37:40;9.62;40.47
68867;SHT30;56451;44.804;20.476;2024-01-30T12:40:27;9.58;40.00
68867;SHT30;56451;44.804;20.476;2024-01-30T12:43:14;9.59;39.81
68867;SHT30;56451;44.804;20.476;2024-01-30T12:45:41;9.56;39.85
68867;SHT30;56451;44.804;20.476;2024-01-30T12:48:28;9.62;40.31
68867;SHT30;56451;44.804;20.476;2024-01-30T12:51:15;9.67;39.31
68867;SHT30;56451;44.804;20.476;2024-01-30T12:54:05;9.52;39.57
68867;SHT30;56451;44.804;20.476;2024-01-30T12:56:31;9.45;39.46
68867;SHT30;56451;44.804;20.476;2024-01-30T12:59:17;9.35;38.76
68867;SHT30;56451;44.804;20.476;2024-01-30T13:02:03;9.45;38.78
68867;SHT30;56451;44.804;20.476;2024-01-30T13:04:49;9.56;38.51
68867;SHT30;56451;44.804;20.476;2024-01-30T13:07:35;9.59;38.29
68867;SHT30;56451;44.804;20.476;2024-01-30T13:10:22;9.67;38.11
68867;SHT30;56451;44.804;20.476;2024-01-30T13:12:48;9.67;37.27
68867;SHT30;56451;44.804;20.476;2024-01-30T13:15:15;9.72;36.68
68867;SHT30;56451;44.804;20.476;2024-01-30T13:18:01;9.77;36.61
68867;SHT30;56451;44.804;20.476;2024-01-30T13:20:48;9.76;36.49
68867;SHT30;56451;44.804;20.476;2024-01-30T13:23:24;9.75;36.60
68867;SHT30;56451;44.804;20.476;2024-01-30T13:25:50;9.82;36.54
68867;SHT30;56451;44.804;20.476;2024-01-30T13:28:16;9.82;36.50
68867;SHT30;56451;44.804;20.476;2024-01-30T13:30:42;9.89;36.52
68867;SHT30;56451;44.804;20.476;2024-01-30T13:33:28;9.86;36.06
68867;SHT30;56451;44.804;20.476;2024-01-30T13:36:15;9.80;35.95
68867;SHT30;56451;44.804;20.476;2024-01-30T13:38:41;9.82;36.46
68867;SHT30;56451;44.804;20.476;2024-01-30T13:41:27;9.83;36.42
68867;SHT30;56451;44.804;20.476;2024-01-30T13:43:54;9.85;36.81
68867;SHT30;56451;44.804;20.476;2024-01-30T13:46:41;9.89;37.10
68867;SHT30;56451;44.804;20.476;2024-01-30T13:49:27;9.91;37.34
68867;SHT30;56451;44.804;20.476;2024-01-30T13:52:04;9.98;37.18
68867;SHT30;56451;44.804;20.476;2024-01-30T13:54:51;9.89;37.91
68867;SHT30;56451;44.804;20.476;2024-01-30T13:57:17;9.93;38.11
68867;SHT30;56451;44.804;20.476;2024-01-30T13:59:43;9.97;37.88
68867;SHT30;56451;44.804;20.476;2024-01-30T14:02:09;9.96;37.81
68867;SHT30;56451;44.804;20.476;2024-01-30T14:04:36;10.08;37.98
68867;SHT30;56451;44.804;20.476;2024-01-30T14:07:04;10.14;38.16
68867;SHT30;56451;44.804;20.476;2024-01-30T14:09:30;10.13;38.04
68867;SHT30;56451;44.804;20.476;2024-01-30T14:11:58;10.22;38.06
68867;SHT30;56451;44.804;20.476;2024-01-30T14:14:24;10.21;37.84
68867;SHT30;56451;44.804;20.476;2024-01-30T14:16:50;10.16;38.24
68867;SHT30;56451;44.804;20.476;2024-01-30T14:19:16;10.21;38.11
68867;SHT30;56451;44.804;20.476;2024-01-30T14:22:02;10.28;38.14
68867;SHT30;56451;44.804;20.476;2024-01-30T14:24:49;10.24;38.17
68867;SHT30;56451;44.804;20.476;2024-01-30T14:27:35;10.27;38.51
68867;SHT30;56451;44.804;20.476;2024-01-30T14:30:22;10.28;38.37
68867;SHT30;56451;44.804;20.476;2024-01-30T14:33:08;10.25;38.53
68867;SHT30;56451;44.804;20.476;2024-01-30T14:35:55;10.30;38.49
68867;SHT30;56451;44.804;20.476;2024-01-30T14:38:42;10.30;38.56
68867;SHT30;56451;44.804;20.476;2024-01-30T14:41:28;10.20;38.53
68867;SHT30;56451;44.804;20.476;2024-01-30T14:44:14;10.17;38.46
68867;SHT30;56451;44.804;20.476;2024-01-30T14:47:00;10.17;38.70
68867;SHT30;56451;44.804;20.476;2024-01-30T14:49:46;10.20;38.64
68867;SHT30;56451;44.804;20.476;2024-01-30T14:52:33;10.20;38.53
68867;SHT30;56451;44.804;20.476;2024-01-30T14:55:19;10.17;38.58
68867;SHT30;56451;44.804;20.476;2024-01-30T14:57:45;10.21;38.90
68867;SHT30;56451;44.804;20.476;2024-01-30T15:00:12;10.18;38.72
68867;SHT30;56451;44.804;20.476;2024-01-30T15:02:40;10.08;38.88
68867;SHT30;56451;44.804;20.476;2024-01-30T15:05:06;10.01;38.98
68867;SHT30;56451;44.804;20.476;2024-01-30T15:07:32;9.98;38.99
68867;SHT30;56451;44.804;20.476;2024-01-30T15:09:58;10.06;39.12
68867;SHT30;56451;44.804;20.476;2024-01-30T15:12:25;10.08;39.27
68867;SHT30;56451;44.804;20.476;2024-01-30T15:14:51;10.08;39.15
68867;SHT30;56451;44.804;20.476;2024-01-30T15:17:18;10.04;39.24
68867;SHT30;56451;44.804;20.476;2024-01-30T15:20:04;10.03;39.43
68867;SHT30;56451;44.804;20.476;2024-01-30T15:22:51;9.91;39.69
68867;SHT30;56451;44.804;20.476;2024-01-30T15:25:37;9.87;39.97
68867;SHT30;56451;44.804;20.476;2024-01-30T15:28:34;9.83;40.17
68867;SHT30;56451;44.804;20.476;2024-01-30T15:31:21;9.77;40.11
68867;SHT30;56451;44.804;20.476;2024-01-30T15:34:07;9.66;40.71
68867;SHT30;56451;44.804;20.476;2024-01-30T15:36:54;9.58;40.87
68867;SHT30;56451;44.804;20.476;2024-01-30T15:39:20;9.56;40.95
68867;SHT30;56451;44.804;20.476;2024-01-30T15:41:46;9.52;41.15
68867;SHT30;56451;44.804;20.476;2024-01-30T15:44:32;9.46;41.76
68867;SHT30;56451;44.804;20.476;2024-01-30T15:47:23;9.42;41.51
68867;SHT30;56451;44.804;20.476;2024-01-30T15:50:11;9.28;41.56
68867;SHT30;56451;44.804;20.476;2024-01-30T15:52:37;9.27;41.81
68867;SHT30;56451;44.804;20.476;2024-01-30T15:55:23;9.19;41.89
68867;SHT30;56451;44.804;20.476;2024-01-30T15:58:09;9.07;42.20
68867;SHT30;56451;44.804;20.476;2024-01-30T16:01:13;9.03;42.38
68867;SHT30;56451;44.804;20.476;2024-01-30T16:04:18;8.92;42.31
68867;SHT30;56451;44.804;20.476;2024-01-30T16:07:23;8.88;42.36
68867;SHT30;56451;44.804;20.476;2024-01-30T16:10:11;8.79;42.64
68867;SHT30;56451;44.804;20.476;2024-01-30T16:13:01;8.81;42.49
68867;SHT30;56451;44.804;20.476;2024-01-30T16:16:04;8.77;42.68
68867;SHT30;56451;44.804;20.476;2024-01-30T16:19:09;8.70;42.86
68867;SHT30;56451;44.804;20.476;2024-01-30T16:21:56;8.63;42.98
68867;SHT30;56451;44.804;20.476;2024-01-30T16:24:42;8.59;43.09
68867;SHT30;56451;44.804;20.476;2024-01-30T16:27:47;8.57;43.26
68867;SHT30;56451;44.804;20.476;2024-01-30T16:30:51;8.50;43.18